• Join FlightAware (Why Join?)
  • Login
  • US Flag 
08:17PM EDT


 

Airport Tracker/Info


-or-


 

Live Flight TrackerFlight Track Log ✈ N610GH ✈ 26-Jul-2013 ✈ KRYY - 09J

Flight Track Log - Related Links

Times and Time Zones

All times are in EDT time to prevent confusion due to time zone crossing. See the N610GH flight status page for this flight to view local times or setup timezone preferences in your user account.

Time Position Orientation Groundspeed Altitude Reporting Facility
EDT Latitude Longitude Course Direction KTS MPH feet Rate Location/Type
10:36AM 34.0167 -84.6500 270° West 146 168 2,800  Level Atlanta TRACON
10:37AM 34.0167 -84.7000 270° West 148 170 3,900 1,380 Climbing Atlanta TRACON
10:38AM 34.0167 -84.7500 270° West 162 186 5,600 1,680 Climbing Atlanta TRACON
10:40AM 33.9764 -84.6808 125° Southeast  Level FlightAware Approximate
10:47AM 33.6948 -84.3513 160° South  Level Estimated
10:48AM 33.6388 -84.3558 184° South  Level FlightAware Approximate
10:49AM 33.5989 -84.3083 164° South  Level Estimated
10:50AM 33.5432 -84.3154 186° South  Level FlightAware Approximate
10:51AM 33.5038 -84.2674 164° South  Level Estimated
10:52AM 33.4644 -84.2195 157° South  Level Estimated
10:53AM 33.4250 -84.1717 163° South  Level Estimated
10:54AM 33.3690 -84.1761 184° South  Level FlightAware Approximate
10:55AM 33.3131 -84.1805 184° South  Level FlightAware Approximate
10:56AM 33.2571 -84.1850 184° South  Level FlightAware Approximate
10:57AM 33.2193 -84.1354 129° Southeast  Level Estimated
10:58AM 33.1753 -84.0939 142° Southeast  Level FlightAware Approximate
10:59AM 33.1312 -84.0524 142° Southeast  Level FlightAware Approximate
11:00AM 33.0872 -84.0109 142° Southeast  Level FlightAware Approximate
11:01AM 33.0431 -83.9695 142° Southeast  Level FlightAware Approximate
11:02AM 32.9990 -83.9281 142° Southeast  Level FlightAware Approximate
11:03AM 32.9549 -83.8868 142° Southeast  Level FlightAware Approximate
11:04AM 32.9108 -83.8455 142° Southeast  Level FlightAware Approximate
11:05AM 32.8667 -83.8042 142° Southeast  Level FlightAware Approximate
11:06AM 32.8226 -83.7630 142° Southeast  Level FlightAware Approximate
11:07AM 32.7784 -83.7218 142° Southeast  Level FlightAware Approximate
11:08AM 32.7419 -83.6712 97° East  Level Estimated
11:09AM 32.7178 -83.6110 115° Southeast  Level FlightAware Approximate
11:10AM 32.6810 -83.5607 102° East  Level Estimated
11:11AM 32.6697 -83.4954 102° East  Level FlightAware Approximate
11:12AM 32.6584 -83.4301 102° East  Level FlightAware Approximate
11:13AM 32.6470 -83.3649 102° East  Level FlightAware Approximate
11:14AM 32.6356 -83.2997 102° East  Level FlightAware Approximate
11:15AM 32.6242 -83.2345 102° East  Level FlightAware Approximate
11:16AM 32.6127 -83.1693 102° East  Level FlightAware Approximate
11:17AM 32.6012 -83.1041 102° East  Level FlightAware Approximate
11:18AM 32.5896 -83.0389 102° East  Level FlightAware Approximate
11:19AM 32.5781 -82.9738 102° East  Level FlightAware Approximate
11:20AM 32.5361 -82.9297 140° Southeast  Level Estimated
11:21AM 32.5082 -82.8720 120° Southeast  Level FlightAware Approximate
11:22AM 32.4802 -82.8143 120° Southeast  Level FlightAware Approximate
11:23AM 32.4375 -82.7712 141° Southeast  Level Estimated
11:24AM 32.3971 -82.7251 136° Southeast  Level FlightAware Approximate
11:25AM 32.3567 -82.6790 136° Southeast  Level FlightAware Approximate
11:26AM 32.3163 -82.6330 136° Southeast  Level FlightAware Approximate
11:27AM 32.2758 -82.5870 136° Southeast  Level FlightAware Approximate
11:28AM 32.2354 -82.5411 136° Southeast  Level FlightAware Approximate
11:29AM 32.1949 -82.4951 136° Southeast  Level FlightAware Approximate
11:30AM 32.1544 -82.4493 136° Southeast  Level FlightAware Approximate
11:31AM 32.1109 -82.4075 143° Southeast  Level Estimated
11:32AM 32.0679 -82.3650 140° Southeast  Level FlightAware Approximate
11:33AM 32.0248 -82.3226 140° Southeast  Level FlightAware Approximate
11:34AM 31.9817 -82.2802 140° Southeast  Level FlightAware Approximate
11:35AM 31.9381 -82.2387 143° Southeast  Level Estimated
11:36AM 31.8939 -82.1979 142° Southeast  Level FlightAware Approximate
11:37AM 31.8498 -82.1572 142° Southeast  Level FlightAware Approximate
11:38AM 31.8056 -82.1165 142° Southeast  Level FlightAware Approximate
11:39AM 31.7620 -82.0750 128° Southeast  Level Estimated
11:40AM 31.7184 -82.0336 140° Southeast  Level Estimated
11:41AM 31.6755 -81.9910 140° Southeast  Level FlightAware Approximate
11:42AM 31.6326 -81.9486 140° Southeast  Level FlightAware Approximate
11:43AM 31.5888 -81.9074 139° Southeast  Level Estimated
11:44AM 31.5463 -81.8644 139° Southeast  Level FlightAware Approximate
11:45AM 31.5038 -81.8214 139° Southeast  Level FlightAware Approximate
11:46AM 31.4613 -81.7785 139° Southeast  Level FlightAware Approximate
11:47AM 31.4170 -81.7382 144° Southeast  Level Estimated
11:48AM 31.3727 -81.6979 142° Southeast  Level FlightAware Approximate
11:49AM 31.3284 -81.6576 139° Southeast  Level Estimated
11:50AM 31.2841 -81.6173 128° Southeast  Level Estimated
11:51AM 31.2397 -81.5772 147° Southeast  Level Estimated
11:52AM 31.1950 -81.5377 143° Southeast  Level FlightAware Approximate
11:53AM 31.1508 -81.4973 139° Southeast  Level Estimated
11:54AM 31.1065 -81.4570 139° Southeast  Level Estimated
11:55AM 31.0745 -81.4278 139° Southeast  Level Estimated
11:56AM 31.0745 -81.4278 139° Southeast  Level Estimated
11:57AM 31.0745 -81.4278 139° Southeast  Level Estimated
11:58AM 31.0745 -81.4278 139° Southeast  Level Estimated
11:59AM 31.0745 -81.4278 139° Southeast  Level Estimated
12:00PM 31.0745 -81.4278 139° Southeast  Level Estimated
12:01PM 31.0745 -81.4278 139° Southeast  Level Estimated
12:02PM 31.0745 -81.4278 139° Southeast  Level Estimated
12:03PM 31.0745 -81.4278 139° Southeast  Level Estimated
12:04PM 31.0745 -81.4278 139° Southeast  Level Estimated
12:05PM 31.0745 -81.4278 139° Southeast  Level Estimated
12:06PM 31.0745 -81.4278 139° Southeast  Level Estimated
12:07PM 31.0745 -81.4278 139° Southeast  Level Estimated